Main page
METAR-TAF:

METAR-TAF

Airports :

Cardiff Airport

Cardiff, Wales

latitude: 51-24N, longitude: 003-21W, elevation: 67 m

Current weather observation

The report was made 23 minutes ago, at 12:50 UTC
Wind 5 kt from the East/Southeast
Temperature 20°C
Humidity 64%
Pressure 1018 hPa
Visibility 10 km or more

METAR: EGFF 211250Z AUTO 12005KT 9999 NCD 20/13 Q1018

Time: 14:13 (13:13 UTC)

Forecast

The report was made 2 hours and 8 minutes ago, at 11:05 UTC
Forecast valid from 21 at 12 UTC to 22 at 12 UTC
Wind 4 kt from the East
Visibility 10 km or more
no clouds below 1500 m and no cumulonimbus
Becoming
from 22 at 00 UTC to 22 at 03 UTC
Visibility: 6000 m
Probability 30%
from 22 at 02 UTC to 22 at 06 UTC
Visibility: 4000 m
Broken clouds at a height of 300 ft
mist
Becoming
from 22 at 08 UTC to 22 at 11 UTC
Visibility 10 km or more
no clouds below 1500 m and no cumulonimbus

TAF: EGFF 211105Z 2112/2212 10004KT CAVOK BECMG 2200/2203 6000 PROB30 2202/2206 4000 BR BKN003 BECMG 2208/2211 CAVOK

Weather observations and forecasts of more than 4000 airports (METAR and TAF reports).

The available stations are represented by yellow and red dots on the map.

Hover mouse over dot to see the name of the station.

Then click to see weather observations and forecasts.

To change the map : click on the green buttons with a black cross to zoom in, on the green button with a dash to zoom out, or on the green arrows for adjacent maps.


METAR-TAF: